Time;durP1;ratioP1;P1;durP2;ratioP2;P2;SDS_P1;SDS_P2;PMS_P1;PMS_P2;Temp;Humidity;BMP_temperature;BMP_pressure;BME280_temperature;BME280_humidity;BME280_pressure;Samples;Min_cycle;Max_cycle;Signal;HPM_P1;HPM_P2
2022/06/03 00:02:13;;;;;;;1.33;1.23;;;;;;;;;;5030975;28;20183;-77
2022/06/03 00:05:14;;;;;;;1.27;1.17;;;;;;;;;;5038579;28;20055;-77
2022/06/03 00:07:55;;;;;;;1.40;1.30;;;;;;;;;;5043470;28;20024;-77
2022/06/03 00:10:59;;;;;;;1.38;1.27;;;;;;;;;;5050494;28;20126;-74
2022/06/03 00:13:51;;;;;;;1.35;1.25;;;;;;;;;;5051424;28;20108;-77
2022/06/03 00:16:35;;;;;;;1.25;1.20;;;;;;;;;;5050443;28;20108;-74
2022/06/03 00:19:12;;;;;;;1.50;1.40;;;;;;;;;;5050674;28;20104;-77
2022/06/03 00:22:03;;;;;;;2.58;1.40;;;;;;;;;;5049093;28;20036;-76
2022/06/03 00:24:46;;;;;;;1.50;1.40;;;;;;;;;;5050026;28;20110;-75
2022/06/03 00:27:26;;;;;;;2.00;1.20;;;;;;;;;;5050728;28;20090;-77
2022/06/03 00:30:16;;;;;;;2.45;1.35;;;;;;;;;;5049415;28;20023;-75
2022/06/03 00:32:44;;;;;;;1.88;1.50;;;;;;;;;;5048549;28;20036;-78
2022/06/03 00:35:37;;;;;;;3.88;1.50;;;;;;;;;;5051174;28;20049;-76
2022/06/03 00:38:14;;;;;;;1.33;1.23;;;;;;;;;;5050554;28;20070;-78
2022/06/03 00:41:06;;;;;;;2.30;1.30;;;;;;;;;;5048225;28;20025;-76
2022/06/03 00:43:52;;;;;;;2.15;1.20;;;;;;;;;;5007066;28;20037;-77
2022/06/03 00:46:35;;;;;;;2.03;1.23;;;;;;;;;;5030552;28;20029;-74
2022/06/03 00:49:29;;;;;;;2.70;1.20;;;;;;;;;;5032647;28;20059;-76
2022/06/03 00:52:04;;;;;;;1.73;1.35;;;;;;;;;;5045437;28;20036;-76
2022/06/03 00:54:35;;;;;;;1.83;1.33;;;;;;;;;;5050480;28;20037;-78
2022/06/03 00:57:26;;;;;;;4.10;1.45;;;;;;;;;;5050535;28;20390;-77
2022/06/03 00:59:54;;;;;;;1.48;1.38;;;;;;;;;;5049365;28;20486;-78
2022/06/03 01:02:37;;;;;;;1.52;1.42;;;;;;;;;;5050699;28;20033;-74
2022/06/03 01:05:02;;;;;;;2.42;1.52;;;;;;;;;;5048862;28;20060;-76
2022/06/03 01:07:52;;;;;;;1.40;1.30;;;;;;;;;;5049957;28;20021;-77
2022/06/03 01:10:20;;;;;;;1.30;1.20;;;;;;;;;;5048618;28;20267;-77
2022/06/03 01:12:57;;;;;;;1.60;1.50;;;;;;;;;;5051127;28;20024;-77
2022/06/03 01:15:31;;;;;;;1.95;1.58;;;;;;;;;;5055177;28;20048;-78
2022/06/03 01:18:02;;;;;;;1.58;1.48;;;;;;;;;;5054419;28;20427;-76
2022/06/03 01:20:37;;;;;;;1.55;1.45;;;;;;;;;;5054764;28;20082;-79
2022/06/03 01:23:12;;;;;;;1.92;1.40;;;;;;;;;;5051933;28;20031;-78
2022/06/03 01:26:16;;;;;;;1.50;1.40;;;;;;;;;;5033015;28;20502;-77
2022/06/03 01:29:19;;;;;;;1.90;1.75;;;;;;;;;;5047402;28;20114;-76
2022/06/03 01:32:05;;;;;;;1.88;1.50;;;;;;;;;;5053905;28;20031;-79
2022/06/03 01:35:05;;;;;;;3.40;1.60;;;;;;;;;;5053699;28;20036;-79
2022/06/03 01:37:49;;;;;;;2.72;1.65;;;;;;;;;;5053741;28;20028;-78
2022/06/03 01:40:40;;;;;;;3.50;1.52;;;;;;;;;;5055580;28;20047;-77
2022/06/03 01:43:12;;;;;;;2.10;1.73;;;;;;;;;;5055080;28;20033;-78
2022/06/03 01:46:06;;;;;;;2.05;1.63;;;;;;;;;;5053056;28;20029;-77
2022/06/03 01:49:01;;;;;;;2.30;2.08;;;;;;;;;;5043779;28;20111;-77
2022/06/03 01:52:03;;;;;;;3.05;1.60;;;;;;;;;;5054367;28;20048;-79
2022/06/03 01:54:55;;;;;;;2.42;1.70;;;;;;;;;;5056429;28;20064;-79
2022/06/03 01:57:39;;;;;;;1.73;1.63;;;;;;;;;;5055023;28;20033;-78
2022/06/03 02:00:25;;;;;;;4.35;1.40;;;;;;;;;;5051918;28;20086;-76
2022/06/03 02:02:55;;;;;;;1.67;1.58;;;;;;;;;;5052561;28;20033;-78
2022/06/03 02:05:32;;;;;;;1.85;1.65;;;;;;;;;;5054122;28;20033;-79
2022/06/03 02:08:07;;;;;;;2.70;1.75;;;;;;;;;;5053294;28;20048;-78
2022/06/03 02:11:06;;;;;;;2.38;1.73;;;;;;;;;;5053680;28;20375;-80
2022/06/03 02:13:50;;;;;;;2.97;1.83;;;;;;;;;;5044046;28;20021;-77
2022/06/03 02:16:45;;;;;;;3.13;1.80;;;;;;;;;;5051444;28;20059;-76
2022/06/03 02:19:48;;;;;;;1.60;1.50;;;;;;;;;;5050664;28;20036;-77
2022/06/03 02:22:28;;;;;;;1.85;1.63;;;;;;;;;;5050375;28;20036;-76
2022/06/03 02:25:17;;;;;;;1.80;1.60;;;;;;;;;;5051336;28;20021;-78
2022/06/03 02:27:52;;;;;;;1.90;1.75;;;;;;;;;;5048594;28;20035;-77
2022/06/03 02:30:50;;;;;;;2.15;1.85;;;;;;;;;;5054428;28;20032;-77
2022/06/03 02:33:46;;;;;;;1.92;1.73;;;;;;;;;;5054889;28;20040;-79
2022/06/03 02:36:11;;;;;;;1.98;1.88;;;;;;;;;;5052208;28;20056;-79
2022/06/03 02:39:04;;;;;;;1.98;1.77;;;;;;;;;;5049193;28;20021;-80
2022/06/03 02:41:57;;;;;;;2.10;1.90;;;;;;;;;;5059450;28;20033;-78
2022/06/03 02:45:07;;;;;;;2.13;1.85;;;;;;;;;;5058512;28;20053;-78
2022/06/03 02:48:00;;;;;;;2.20;2.00;;;;;;;;;;5050377;28;20517;-79
2022/06/03 02:50:59;;;;;;;2.40;1.90;;;;;;;;;;5055837;28;20058;-79
2022/06/03 02:53:41;;;;;;;2.03;1.77;;;;;;;;;;5054666;28;20029;-79
2022/06/03 02:56:48;;;;;;;2.95;1.50;;;;;;;;;;5051241;28;20124;-78
2022/06/03 02:59:38;;;;;;;2.83;2.38;;;;;;;;;;5035914;28;20458;-79
2022/06/03 03:02:31;;;;;;;1.83;1.73;;;;;;;;;;5053112;28;20032;-80
2022/06/03 03:05:25;;;;;;;2.53;2.10;;;;;;;;;;5052239;28;20051;-78
2022/06/03 03:08:18;;;;;;;3.10;1.80;;;;;;;;;;5052624;28;20230;-79
2022/06/03 03:11:06;;;;;;;;;;;;;;;;;;5036180;28;20018;-79
2022/06/03 03:14:09;;;;;;;1.98;1.75;;;;;;;;;;5047885;28;19919;-79
2022/06/03 03:17:11;;;;;;;2.53;1.60;;;;;;;;;;5038992;28;20028;-79
2022/06/03 03:20:13;;;;;;;2.08;1.88;;;;;;;;;;5046975;28;20501;-79
2022/06/03 03:23:05;;;;;;;2.35;1.50;;;;;;;;;;5056569;28;20079;-77
2022/06/03 03:25:38;;;;;;;1.95;1.70;;;;;;;;;;5056290;28;20025;-79
2022/06/03 03:28:30;;;;;;;1.98;1.70;;;;;;;;;;5058071;28;20032;-79
2022/06/03 03:31:11;;;;;;;2.43;2.10;;;;;;;;;;5039168;28;20029;-78
2022/06/03 03:33:42;;;;;;;2.10;1.90;;;;;;;;;;5037120;28;20338;-80
2022/06/03 03:36:30;;;;;;;4.15;2.28;;;;;;;;;;5039909;28;20028;-80
2022/06/03 03:39:22;;;;;;;2.53;2.28;;;;;;;;;;5056340;28;20449;-79
2022/06/03 03:42:24;;;;;;;3.78;1.85;;;;;;;;;;5049839;28;20040;-77
2022/06/03 03:45:11;;;;;;;3.58;1.98;;;;;;;;;;5035351;28;20037;-79
2022/06/03 03:48:14;;;;;;;1.88;1.70;;;;;;;;;;5051999;28;20035;-79
2022/06/03 03:50:50;;;;;;;1.75;1.65;;;;;;;;;;5039430;28;20025;-78
2022/06/03 03:53:50;;;;;;;2.13;1.77;;;;;;;;;;5055198;28;20058;-78
2022/06/03 03:56:43;;;;;;;4.28;2.15;;;;;;;;;;5056430;28;20461;-77
2022/06/03 03:59:33;;;;;;;4.00;2.10;;;;;;;;;;5056269;28;20083;-78
2022/06/03 04:02:12;;;;;;;3.42;2.00;;;;;;;;;;5053387;28;20056;-77
2022/06/03 04:05:01;;;;;;;4.85;1.90;;;;;;;;;;5053754;28;20062;-79
2022/06/03 04:07:57;;;;;;;2.00;1.80;;;;;;;;;;5054918;28;20371;-76
2022/06/03 04:10:41;;;;;;;2.05;1.80;;;;;;;;;;5054532;28;20312;-75
2022/06/03 04:13:24;;;;;;;1.80;1.70;;;;;;;;;;5053294;28;20072;-77
2022/06/03 04:16:21;;;;;;;4.38;2.00;;;;;;;;;;5050833;28;20017;-79
2022/06/03 04:19:06;;;;;;;2.60;2.00;;;;;;;;;;4982644;28;20033;-77
2022/06/03 04:21:57;;;;;;;1.92;1.83;;;;;;;;;;5052832;28;20032;-78
2022/06/03 04:25:11;;;;;;;4.78;1.80;;;;;;;;;;5067092;28;20055;-76
2022/06/03 04:27:40;;;;;;;2.30;2.10;;;;;;;;;;5051962;28;20482;-77
2022/06/03 04:30:20;;;;;;;2.35;1.92;;;;;;;;;;5058837;28;20161;-75
2022/06/03 04:33:07;;;;;;;2.20;2.00;;;;;;;;;;5055765;28;20021;-78
2022/06/03 04:36:00;;;;;;;2.10;1.90;;;;;;;;;;5053434;28;20091;-79
2022/06/03 04:38:44;;;;;;;2.22;2.03;;;;;;;;;;5052256;28;20055;-79
2022/06/03 04:41:31;;;;;;;3.10;2.28;;;;;;;;;;5048653;28;20035;-78
2022/06/03 04:44:48;;;;;;;4.05;2.10;;;;;;;;;;5051573;28;20036;-78
2022/06/03 04:47:31;;;;;;;3.45;1.88;;;;;;;;;;5050616;28;20126;-78
2022/06/03 04:50:18;;;;;;;2.90;2.05;;;;;;;;;;5051669;28;20052;-77
2022/06/03 04:53:11;;;;;;;1.95;1.65;;;;;;;;;;5050525;28;20066;-77
2022/06/03 04:55:58;;;;;;;2.38;1.77;;;;;;;;;;5049978;28;20399;-76
2022/06/03 04:58:51;;;;;;;1.83;1.63;;;;;;;;;;5051929;28;20444;-78
2022/06/03 05:01:31;;;;;;;;;;;;;;;;;;5051918;28;20495;-76
2022/06/03 05:04:30;;;;;;;1.73;1.63;;;;;;;;;;5051807;28;20397;-77
2022/06/03 05:07:32;;;;;;;2.22;1.60;;;;;;;;;;5047449;28;20497;-77
2022/06/03 05:10:01;;;;;;;3.72;1.83;;;;;;;;;;5051049;28;20083;-78
2022/06/03 05:12:47;;;;;;;1.85;1.50;;;;;;;;;;5053073;28;20040;-79
2022/06/03 05:15:41;;;;;;;1.70;1.50;;;;;;;;;;5054517;28;20028;-74
2022/06/03 05:19:01;;;;;;;2.33;1.55;;;;;;;;;;5052955;28;20060;-80
2022/06/03 05:21:33;;;;;;;2.22;1.60;;;;;;;;;;5011384;28;20056;-77
2022/06/03 05:24:13;;;;;;;2.15;1.40;;;;;;;;;;5047552;28;20033;-77
2022/06/03 05:27:16;;;;;;;2.95;1.50;;;;;;;;;;5051545;28;20489;-79
2022/06/03 05:30:03;;;;;;;1.77;1.67;;;;;;;;;;5045248;28;20103;-74
2022/06/03 05:33:01;;;;;;;2.20;1.58;;;;;;;;;;5050665;28;20090;-76
2022/06/03 05:35:36;;;;;;;1.80;1.60;;;;;;;;;;5044739;28;20053;-75
2022/06/03 05:38:06;;;;;;;2.83;1.80;;;;;;;;;;5051146;28;20033;-76
2022/06/03 05:40:34;;;;;;;2.17;1.52;;;;;;;;;;5050585;28;20053;-75
2022/06/03 05:43:14;;;;;;;2.30;1.42;;;;;;;;;;5050969;28;20072;-77
2022/06/03 05:45:56;;;;;;;3.58;1.30;;;;;;;;;;5053542;28;20078;-78
2022/06/03 05:48:24;;;;;;;2.65;1.63;;;;;;;;;;5051290;28;20090;-76
2022/06/03 05:50:49;;;;;;;2.22;1.70;;;;;;;;;;5049069;28;20025;-76
2022/06/03 05:53:44;;;;;;;10.63;1.90;;;;;;;;;;5053471;28;20390;-78
2022/06/03 05:56:29;;;;;;;2.20;1.80;;;;;;;;;;5053987;28;20047;-78
2022/06/03 05:59:15;;;;;;;3.80;1.65;;;;;;;;;;5055944;28;20013;-78
2022/06/03 06:02:15;;;;;;;6.63;1.95;;;;;;;;;;5048829;28;20028;-78
2022/06/03 06:04:57;;;;;;;4.10;1.58;;;;;;;;;;5045649;28;20040;-77
2022/06/03 06:07:39;;;;;;;2.55;1.80;;;;;;;;;;5051108;28;20017;-74
2022/06/03 06:10:18;;;;;;;1.63;1.38;;;;;;;;;;5049339;28;20025;-77
2022/06/03 06:13:04;;;;;;;3.67;1.50;;;;;;;;;;5045366;28;20033;-74
2022/06/03 06:15:45;;;;;;;2.85;1.55;;;;;;;;;;5048349;28;20025;-77
2022/06/03 06:18:41;;;;;;;2.17;1.42;;;;;;;;;;5053176;28;20059;-77
2022/06/03 06:21:25;;;;;;;4.72;1.77;;;;;;;;;;5054671;28;20299;-78
2022/06/03 06:24:13;;;;;;;2.55;1.67;;;;;;;;;;5053613;28;20442;-76
2022/06/03 06:27:00;;;;;;;3.63;1.73;;;;;;;;;;5056168;28;20128;-78
2022/06/03 06:30:03;;;;;;;1.80;1.58;;;;;;;;;;5050052;28;20032;-79
2022/06/03 06:32:42;;;;;;;3.40;2.20;;;;;;;;;;5056712;28;20033;-79
2022/06/03 06:35:42;;;;;;;5.30;2.40;;;;;;;;;;5056553;28;20025;-77
2022/06/03 06:38:39;;;;;;;3.60;2.00;;;;;;;;;;5052098;28;20024;-77
2022/06/03 06:41:38;;;;;;;3.15;1.65;;;;;;;;;;5061480;28;20028;-79
2022/06/03 06:44:12;;;;;;;2.58;1.50;;;;;;;;;;5050503;28;20025;-79
2022/06/03 06:46:58;;;;;;;2.72;1.58;;;;;;;;;;5049044;28;20052;-77
2022/06/03 06:49:34;;;;;;;2.20;1.30;;;;;;;;;;5030859;28;20061;-77
2022/06/03 06:52:10;;;;;;;4.22;1.63;;;;;;;;;;5037715;28;20033;-78
2022/06/03 06:54:52;;;;;;;3.33;1.42;;;;;;;;;;5047954;28;20024;-80
2022/06/03 06:57:30;;;;;;;1.83;1.08;;;;;;;;;;5049224;28;20060;-80
2022/06/03 07:00:02;;;;;;;3.05;1.42;;;;;;;;;;5047995;28;20690;-77
2022/06/03 07:02:33;;;;;;;;;;;;;;;;;;5048753;28;20475;-78
2022/06/03 07:05:05;;;;;;;4.45;1.23;;;;;;;;;;5048920;28;19935;-77
2022/06/03 07:07:48;;;;;;;3.65;1.35;;;;;;;;;;5048927;28;20021;-81
2022/06/03 07:10:34;;;;;;;3.53;1.40;;;;;;;;;;5046650;28;20029;-77
2022/06/03 07:13:15;;;;;;;4.57;1.55;;;;;;;;;;5062801;23;20038;-78
2022/06/03 07:19:47;;;;;;;1.40;1.30;;;;;;;;;;5028093;28;20024;-73
2022/06/03 07:22:20;;;;;;;2.55;1.30;;;;;;;;;;5011612;28;20056;-80
2022/06/03 07:24:50;;;;;;;3.47;1.40;;;;;;;;;;5015538;28;20468;-77
2022/06/03 07:27:42;;;;;;;2.65;1.17;;;;;;;;;;5009941;28;20534;-80
2022/06/03 07:30:16;;;;;;;1.98;1.20;;;;;;;;;;5011475;28;20045;-77
2022/06/03 07:32:49;;;;;;;1.77;1.30;;;;;;;;;;5011300;28;20036;-76
2022/06/03 07:35:20;;;;;;;2.22;1.55;;;;;;;;;;5011825;28;20060;-76
2022/06/03 07:38:04;;;;;;;3.90;1.30;;;;;;;;;;5012601;28;20026;-80
2022/06/03 07:40:40;;;;;;;3.55;1.20;;;;;;;;;;5028370;28;20479;-76
2022/06/03 07:43:34;;;;;;;6.07;1.48;;;;;;;;;;5013747;28;20037;-76
2022/06/03 07:46:20;;;;;;;2.08;1.10;;;;;;;;;;5028268;28;20036;-79
2022/06/03 07:48:46;;;;;;;2.65;0.90;;;;;;;;;;5012172;28;20049;-79
2022/06/03 07:51:14;;;;;;;1.80;1.10;;;;;;;;;;5010384;28;20072;-78
2022/06/03 07:54:00;;;;;;;4.32;1.13;;;;;;;;;;5013772;28;20024;-77
2022/06/03 07:56:31;;;;;;;4.72;1.08;;;;;;;;;;5015713;28;20506;-79
2022/06/03 07:59:23;;;;;;;6.68;1.40;;;;;;;;;;5015102;28;20038;-78
2022/06/03 08:02:18;;;;;;;1.65;1.05;;;;;;;;;;5015322;28;20057;-80
2022/06/03 08:04:46;;;;;;;4.63;1.20;;;;;;;;;;5010294;28;20399;-76
2022/06/03 08:12:59;;;;;;;2.70;1.08;;;;;;;;;;5027744;28;20035;-73
2022/06/03 08:15:29;;;;;;;2.53;1.00;;;;;;;;;;5027628;28;20033;-74
2022/06/03 08:17:55;;;;;;;1.58;1.10;;;;;;;;;;5027855;28;20017;-77
2022/06/03 08:20:24;;;;;;;3.53;1.15;;;;;;;;;;5027664;28;20057;-76
2022/06/03 08:22:50;;;;;;;1.40;1.27;;;;;;;;;;5028709;28;20040;-76
2022/06/03 08:25:22;;;;;;;2.28;1.30;;;;;;;;;;5027968;28;20022;-75
2022/06/03 08:27:49;;;;;;;3.53;1.00;;;;;;;;;;5027548;28;20159;-75
2022/06/03 08:30:20;;;;;;;3.10;1.20;;;;;;;;;;5026719;28;20024;-74
2022/06/03 08:33:12;;;;;;;2.63;0.90;;;;;;;;;;5025445;28;20033;-76
2022/06/03 08:35:43;;;;;;;3.05;1.10;;;;;;;;;;5024252;28;20569;-76
2022/06/03 08:38:18;;;;;;;1.80;1.20;;;;;;;;;;5026571;28;20226;-75
2022/06/03 08:41:02;;;;;;;2.10;1.08;;;;;;;;;;5026883;28;20503;-76
2022/06/03 08:43:30;;;;;;;2.60;1.00;;;;;;;;;;5027973;28;20022;-73
2022/06/03 08:46:07;;;;;;;3.97;0.90;;;;;;;;;;5028031;28;20056;-74
2022/06/03 08:48:37;;;;;;;4.78;1.00;;;;;;;;;;5026647;28;20062;-75
2022/06/03 08:51:09;;;;;;;2.80;1.00;;;;;;;;;;5027007;28;20463;-76
2022/06/03 08:54:01;;;;;;;1.27;1.00;;;;;;;;;;5025216;28;20743;-75
2022/06/03 08:56:32;;;;;;;3.83;1.08;;;;;;;;;;5019610;28;20536;-79
2022/06/03 08:59:05;;;;;;;;;;;;;;;;;;5017039;28;20026;-77
2022/06/03 09:01:41;;;;;;;6.05;1.23;;;;;;;;;;5015935;28;19960;-73
2022/06/03 09:04:22;;;;;;;2.78;1.08;;;;;;;;;;5014696;28;20029;-77
2022/06/03 09:06:52;;;;;;;;;;;;;;;;;;5012063;28;20191;-76
2022/06/03 09:09:33;;;;;;;1.58;1.10;;;;;;;;;;5007556;28;19910;-76
2022/06/03 09:12:10;;;;;;;2.85;1.17;;;;;;;;;;5007200;28;20024;-76
2022/06/03 09:14:41;;;;;;;2.25;1.10;;;;;;;;;;5006914;28;20245;-76
2022/06/03 09:17:27;;;;;;;2.55;0.93;;;;;;;;;;5009279;28;20037;-77
2022/06/03 09:19:58;;;;;;;4.13;1.30;;;;;;;;;;5013513;28;20025;-76
2022/06/03 09:22:25;;;;;;;3.30;1.23;;;;;;;;;;5027548;28;20106;-76
2022/06/03 09:24:54;;;;;;;1.10;1.00;;;;;;;;;;5026330;28;20052;-76
2022/06/03 09:27:21;;;;;;;1.80;1.02;;;;;;;;;;5026838;28;20037;-76
2022/06/03 09:29:52;;;;;;;3.33;1.20;;;;;;;;;;5026701;28;20509;-78
2022/06/03 09:32:19;;;;;;;2.13;1.00;;;;;;;;;;5027589;28;20029;-76
2022/06/03 09:34:50;;;;;;;2.38;0.90;;;;;;;;;;5026932;28;20022;-77
2022/06/03 09:37:23;;;;;;;0.95;0.85;;;;;;;;;;5017293;28;20029;-76
2022/06/03 09:39:51;;;;;;;1.75;1.00;;;;;;;;;;5006850;28;20042;-75
2022/06/03 09:42:19;;;;;;;5.07;1.10;;;;;;;;;;5007066;28;20029;-75
2022/06/03 09:44:46;;;;;;;5.18;1.05;;;;;;;;;;5004054;28;20467;-77
2022/06/03 09:47:16;;;;;;;2.15;1.00;;;;;;;;;;5006551;28;20033;-79
2022/06/03 09:49:45;;;;;;;1.30;1.10;;;;;;;;;;5021762;28;20013;-78
2022/06/03 09:52:14;;;;;;;5.03;1.00;;;;;;;;;;5007546;28;20037;-75
2022/06/03 09:54:43;;;;;;;2.55;1.17;;;;;;;;;;5008323;28;20030;-75
2022/06/03 09:57:23;;;;;;;3.72;1.10;;;;;;;;;;5008188;28;20121;-76
2022/06/03 10:00:08;;;;;;;1.10;1.00;;;;;;;;;;5027951;28;20033;-77
2022/06/03 10:02:35;;;;;;;2.08;1.08;;;;;;;;;;5028831;28;20022;-76
2022/06/03 10:05:02;;;;;;;1.25;1.00;;;;;;;;;;5027351;28;20025;-76
2022/06/03 10:07:28;;;;;;;4.30;1.15;;;;;;;;;;5012680;28;20085;-75
2022/06/03 10:12:49;;;;;;;7.72;1.40;;;;;;;;;;5018751;28;20102;-75
2022/06/03 10:15:42;;;;;;;4.90;1.15;;;;;;;;;;5024823;28;20501;-76
2022/06/03 10:18:17;;;;;;;3.42;1.67;;;;;;;;;;5023979;28;20084;-75
2022/06/03 10:20:43;;;;;;;5.70;1.25;;;;;;;;;;5025061;28;20027;-75
2022/06/03 10:23:10;;;;;;;5.25;1.48;;;;;;;;;;5025585;28;20049;-71
2022/06/03 10:25:41;;;;;;;3.17;1.30;;;;;;;;;;5024482;28;20111;-74
2022/06/03 10:28:09;;;;;;;3.90;1.48;;;;;;;;;;5024611;28;20072;-76
2022/06/03 10:30:37;;;;;;;3.58;1.40;;;;;;;;;;5025081;28;20570;-76
2022/06/03 10:33:05;;;;;;;4.82;1.80;;;;;;;;;;5024800;28;20039;-76
2022/06/03 10:35:38;;;;;;;6.53;2.00;;;;;;;;;;5024699;28;20530;-79
2022/06/03 10:38:04;;;;;;;4.63;2.75;;;;;;;;;;5023650;28;20106;-76
2022/06/03 10:40:31;;;;;;;3.15;1.52;;;;;;;;;;5024631;28;20021;-74
2022/06/03 10:42:59;;;;;;;2.42;1.40;;;;;;;;;;5024283;28;20044;-74
2022/06/03 10:45:30;;;;;;;2.13;1.30;;;;;;;;;;5024671;28;20060;-76
2022/06/03 10:47:55;;;;;;;2.20;1.20;;;;;;;;;;5023061;28;20029;-72
2022/06/03 10:50:27;;;;;;;1.83;1.30;;;;;;;;;;5022947;28;20060;-74
2022/06/03 11:01:45;;;;;;;1.85;1.33;;;;;;;;;;5006852;28;20064;-73
2022/06/03 11:04:24;;;;;;;3.63;1.65;;;;;;;;;;5023727;28;20032;-74
2022/06/03 11:06:49;;;;;;;2.15;1.20;;;;;;;;;;5020585;28;20026;-74
2022/06/03 11:09:15;;;;;;;2.15;1.40;;;;;;;;;;5021819;28;20376;-76
2022/06/03 11:11:47;;;;;;;4.40;1.50;;;;;;;;;;5024773;28;20033;-75
2022/06/03 11:14:24;;;;;;;;;;;;;;;;;;5025553;28;20029;-74
2022/06/03 11:17:05;;;;;;;2.10;1.42;;;;;;;;;;5025362;28;20016;-74
2022/06/03 11:19:38;;;;;;;2.05;1.40;;;;;;;;;;5023867;28;20036;-75
2022/06/03 11:22:17;;;;;;;3.70;1.73;;;;;;;;;;5025112;28;20040;-74
2022/06/03 11:24:49;;;;;;;1.38;1.13;;;;;;;;;;5025015;28;20032;-74
2022/06/03 11:27:17;;;;;;;2.75;1.50;;;;;;;;;;5023926;28;20392;-74
2022/06/03 11:29:44;;;;;;;2.63;1.30;;;;;;;;;;5024522;28;20029;-75
2022/06/03 11:32:13;;;;;;;3.70;1.50;;;;;;;;;;5024709;28;20029;-74
2022/06/03 11:34:43;;;;;;;5.57;1.52;;;;;;;;;;5025206;28;20233;-75
2022/06/03 11:37:23;;;;;;;4.35;1.40;;;;;;;;;;5024738;28;20760;-73
2022/06/03 11:39:55;;;;;;;2.60;1.40;;;;;;;;;;5024391;28;20049;-74
2022/06/03 11:42:50;;;;;;;3.40;1.58;;;;;;;;;;5024881;28;20033;-78
2022/06/03 11:45:19;;;;;;;3.65;1.48;;;;;;;;;;5024809;28;20029;-74
2022/06/03 11:48:01;;;;;;;3.67;1.50;;;;;;;;;;5026673;28;20314;-74
2022/06/03 11:50:28;;;;;;;3.00;1.63;;;;;;;;;;5025103;28;20080;-74
2022/06/03 11:52:55;;;;;;;4.50;1.63;;;;;;;;;;5024534;28;20052;-74
2022/06/03 11:55:24;;;;;;;2.33;1.60;;;;;;;;;;5024282;28;20092;-76
2022/06/03 11:58:07;;;;;;;2.75;1.40;;;;;;;;;;5025094;28;20045;-73
2022/06/03 12:00:38;;;;;;;4.97;1.85;;;;;;;;;;5024829;28;20364;-74
2022/06/03 12:03:22;;;;;;;1.58;1.48;;;;;;;;;;5025566;28;20456;-75
2022/06/03 12:05:57;;;;;;;2.28;1.52;;;;;;;;;;5025679;28;20036;-74
2022/06/03 12:08:55;;;;;;;2.25;1.40;;;;;;;;;;5027164;28;20026;-74
2022/06/03 12:14:42;;;;;;;3.17;1.60;;;;;;;;;;5025049;28;20159;-75
2022/06/03 12:17:10;;;;;;;2.88;1.30;;;;;;;;;;5028585;28;20493;-75
2022/06/03 12:19:42;;;;;;;1.63;1.27;;;;;;;;;;5027507;28;20097;-75
2022/06/03 12:22:19;;;;;;;9.35;1.70;;;;;;;;;;5027836;28;20458;-74
2022/06/03 12:24:47;;;;;;;2.42;1.50;;;;;;;;;;5027910;28;20034;-74
2022/06/03 12:27:23;;;;;;;1.80;1.30;;;;;;;;;;5030494;28;20029;-76
2022/06/03 12:30:17;;;;;;;3.08;1.50;;;;;;;;;;5028461;28;20032;-76
2022/06/03 12:33:06;;;;;;;5.38;1.75;;;;;;;;;;5027162;28;20491;-74
2022/06/03 12:35:50;;;;;;;1.80;1.50;;;;;;;;;;5027928;28;20064;-75
2022/06/03 12:38:21;;;;;;;3.38;1.50;;;;;;;;;;5028144;28;20399;-75
2022/06/03 12:40:48;;;;;;;5.88;1.65;;;;;;;;;;5027656;28;20033;-75
2022/06/03 12:43:31;;;;;;;2.33;1.50;;;;;;;;;;5027452;28;20040;-75
2022/06/03 12:46:05;;;;;;;3.13;1.60;;;;;;;;;;5025833;28;20475;-77
2022/06/03 12:48:43;;;;;;;4.00;1.50;;;;;;;;;;5026879;28;20116;-76
2022/06/03 12:51:25;;;;;;;1.63;1.52;;;;;;;;;;5027003;28;20053;-75
2022/06/03 12:54:14;;;;;;;3.13;1.70;;;;;;;;;;5027175;28;20032;-75
2022/06/03 12:57:15;;;;;;;2.03;1.40;;;;;;;;;;5027719;28;20437;-77
2022/06/03 13:00:06;;;;;;;1.50;1.40;;;;;;;;;;5009779;28;20037;-75
2022/06/03 13:02:36;;;;;;;3.15;1.90;;;;;;;;;;5027135;28;20029;-75
2022/06/03 13:05:01;;;;;;;3.38;1.50;;;;;;;;;;5027338;28;20029;-76
2022/06/03 13:07:27;;;;;;;2.30;1.30;;;;;;;;;;5026688;28;20523;-75
2022/06/03 13:10:03;;;;;;;2.20;1.50;;;;;;;;;;5025263;28;20021;-75
2022/06/03 13:12:47;;;;;;;2.38;1.50;;;;;;;;;;5026958;28;20366;-76
2022/06/03 13:15:27;;;;;;;4.35;1.70;;;;;;;;;;5026995;28;20483;-73
2022/06/03 13:18:13;;;;;;;1.80;1.60;;;;;;;;;;5026496;28;20510;-76
2022/06/03 13:21:09;;;;;;;4.25;1.40;;;;;;;;;;5026188;28;20367;-76
2022/06/03 13:23:34;;;;;;;2.25;1.67;;;;;;;;;;5026277;28;20029;-78
2022/06/03 13:26:22;;;;;;;1.77;1.60;;;;;;;;;;5027189;28;20548;-76
2022/06/03 13:28:55;;;;;;;2.42;1.50;;;;;;;;;;5027404;28;20124;-79
2022/06/03 13:31:40;;;;;;;2.50;1.60;;;;;;;;;;5026928;28;20029;-78
2022/06/03 13:34:05;;;;;;;2.13;1.65;;;;;;;;;;5026874;28;20409;-78
2022/06/03 13:36:36;;;;;;;2.65;1.60;;;;;;;;;;5030120;28;20026;-78
2022/06/03 13:39:03;;;;;;;2.40;1.77;;;;;;;;;;5028120;28;20018;-78
2022/06/03 13:44:36;;;;;;;2.38;1.60;;;;;;;;;;5030617;28;20120;-78
2022/06/03 13:47:08;;;;;;;2.65;1.70;;;;;;;;;;5027349;28;20022;-78
2022/06/03 13:49:36;;;;;;;3.78;1.80;;;;;;;;;;5028144;28;20068;-81
2022/06/03 13:52:06;;;;;;;4.10;2.47;;;;;;;;;;5029506;28;20021;-77
2022/06/03 13:54:47;;;;;;;2.15;1.90;;;;;;;;;;5027312;28;20036;-77
2022/06/03 13:57:20;;;;;;;1.93;1.73;;;;;;;;;;5024697;28;20536;-77
2022/06/03 13:59:46;;;;;;;2.65;1.65;;;;;;;;;;5006376;28;20515;-78
2022/06/03 14:02:19;;;;;;;3.63;1.80;;;;;;;;;;5007105;28;20338;-77
2022/06/03 14:04:55;;;;;;;2.42;1.60;;;;;;;;;;5008588;28;20431;-78
2022/06/03 14:07:36;;;;;;;6.53;1.60;;;;;;;;;;5007041;28;20033;-78
2022/06/03 14:10:14;;;;;;;4.17;2.17;;;;;;;;;;5007497;28;20542;-78
2022/06/03 14:12:54;;;;;;;3.58;1.80;;;;;;;;;;5007367;28;20060;-73
2022/06/03 14:15:50;;;;;;;1.90;1.70;;;;;;;;;;5010264;28;20522;-78
2022/06/03 14:18:44;;;;;;;3.53;2.00;;;;;;;;;;5007106;28;20030;-78
2022/06/03 14:21:14;;;;;;;2.38;2.13;;;;;;;;;;5006896;28;20088;-79
2022/06/03 14:23:44;;;;;;;2.10;1.95;;;;;;;;;;5006967;28;20033;-79
2022/06/03 14:26:17;;;;;;;2.17;1.95;;;;;;;;;;5007907;28;20025;-76
2022/06/03 14:29:03;;;;;;;4.25;2.10;;;;;;;;;;5007712;28;20018;-78
2022/06/03 14:31:54;;;;;;;4.78;2.13;;;;;;;;;;5006891;28;20119;-75
2022/06/03 14:34:24;;;;;;;3.03;2.30;;;;;;;;;;5008359;28;20053;-76
2022/06/03 14:36:53;;;;;;;2.70;2.45;;;;;;;;;;5010236;28;20025;-77
2022/06/03 14:39:31;;;;;;;3.92;2.30;;;;;;;;;;5006559;28;20037;-77
2022/06/03 14:42:02;;;;;;;3.92;2.55;;;;;;;;;;5007546;28;20507;-75
2022/06/03 14:44:31;;;;;;;2.95;2.10;;;;;;;;;;5009117;28;20030;-76
2022/06/03 14:47:02;;;;;;;3.45;2.20;;;;;;;;;;5009659;28;20029;-78
2022/06/03 14:49:47;;;;;;;3.05;2.30;;;;;;;;;;5012778;28;20017;-77
2022/06/03 14:52:17;;;;;;;3.58;2.25;;;;;;;;;;5010626;28;20030;-82
2022/06/03 14:54:50;;;;;;;3.35;2.60;;;;;;;;;;5012162;28;20022;-79
2022/06/03 14:57:45;;;;;;;2.30;2.10;;;;;;;;;;5010986;28;20026;-79
2022/06/03 15:00:53;;;;;;;2.63;2.40;;;;;;;;;;5005371;28;20049;-81
2022/06/03 15:03:24;;;;;;;3.45;2.40;;;;;;;;;;5009399;28;20220;-81
2022/06/03 15:06:01;;;;;;;3.40;2.47;;;;;;;;;;5009695;28;20091;-80
2022/06/03 15:08:30;;;;;;;2.95;2.47;;;;;;;;;;5009468;28;20125;-79
2022/06/03 15:11:17;;;;;;;3.42;2.60;;;;;;;;;;5009249;28;20288;-80
2022/06/03 15:13:50;;;;;;;3.38;2.83;;;;;;;;;;5006957;28;20053;-80
2022/06/03 15:16:16;;;;;;;2.72;2.47;;;;;;;;;;5010036;28;20033;-79
2022/06/03 15:18:44;;;;;;;3.92;2.70;;;;;;;;;;5008886;28;20058;-79
2022/06/03 15:21:14;;;;;;;3.65;2.70;;;;;;;;;;5008290;28;20456;-78
2022/06/03 15:23:42;;;;;;;5.32;2.78;;;;;;;;;;5008793;28;20383;-79
2022/06/03 15:26:11;;;;;;;3.83;2.47;;;;;;;;;;5022860;28;20140;-78
2022/06/03 15:28:37;;;;;;;2.63;2.33;;;;;;;;;;5006106;28;20024;-77
2022/06/03 15:31:16;;;;;;;2.50;2.30;;;;;;;;;;5006658;28;20443;-77
2022/06/03 15:33:50;;;;;;;2.42;2.10;;;;;;;;;;5007773;28;20033;-79
2022/06/03 15:36:20;;;;;;;4.30;2.55;;;;;;;;;;5005815;28;20034;-77
2022/06/03 15:38:51;;;;;;;2.45;2.22;;;;;;;;;;5020643;28;20029;-78
2022/06/03 15:41:25;;;;;;;5.05;2.60;;;;;;;;;;5005803;28;20022;-75
2022/06/03 15:43:56;;;;;;;4.80;2.47;;;;;;;;;;5009017;28;20052;-78
2022/06/03 15:46:29;;;;;;;3.85;2.50;;;;;;;;;;5010093;28;20119;-77
2022/06/03 15:49:03;;;;;;;2.92;2.60;;;;;;;;;;5009868;28;20078;-77
2022/06/03 15:51:29;;;;;;;2.78;2.17;;;;;;;;;;5011941;28;20172;-77
2022/06/03 15:53:57;;;;;;;5.15;2.70;;;;;;;;;;5024172;28;20030;-78
2022/06/03 15:56:29;;;;;;;6.07;2.78;;;;;;;;;;5010989;28;20124;-80
2022/06/03 15:59:03;;;;;;;3.55;2.63;;;;;;;;;;5010426;28;20021;-76
2022/06/03 16:01:38;;;;;;;3.90;2.58;;;;;;;;;;5009261;28;20059;-77
2022/06/03 16:04:49;;;;;;;2.88;2.42;;;;;;;;;;5009836;28;20252;-78
2022/06/03 16:07:17;;;;;;;2.55;2.17;;;;;;;;;;4988799;28;20679;-76
2022/06/03 16:10:02;;;;;;;2.55;2.35;;;;;;;;;;5008335;28;20454;-76
2022/06/03 16:12:43;;;;;;;2.70;2.50;;;;;;;;;;5008304;28;20606;-77
2022/06/03 16:15:25;;;;;;;3.58;2.40;;;;;;;;;;5009303;28;20579;-76
2022/06/03 16:18:08;;;;;;;4.10;2.63;;;;;;;;;;5008990;28;20022;-76
2022/06/03 16:20:57;;;;;;;3.22;2.38;;;;;;;;;;5008737;28;20033;-75
2022/06/03 16:23:28;;;;;;;2.92;2.22;;;;;;;;;;5009326;28;20079;-74
2022/06/03 16:26:14;;;;;;;2.40;1.98;;;;;;;;;;5008540;28;20026;-77
2022/06/03 16:28:55;;;;;;;2.65;1.92;;;;;;;;;;5009385;28;20483;-78
2022/06/03 16:31:25;;;;;;;2.50;2.30;;;;;;;;;;5008999;28;20041;-77